createdAt,value
2022-09-21T00:00:03.616Z,5.20
2022-09-21T00:02:34.991Z,5.20
2022-09-21T00:05:03.555Z,5.20
2022-09-21T00:07:31.961Z,5.10
2022-09-21T00:10:00.417Z,5.10
2022-09-21T00:12:31.688Z,5.10
2022-09-21T00:14:59.956Z,5.10
2022-09-21T00:17:29.087Z,5.00
2022-09-21T00:19:57.395Z,5.00
2022-09-21T00:22:26.083Z,5.00
2022-09-21T00:24:54.310Z,4.90
2022-09-21T00:27:22.888Z,4.90
2022-09-21T00:29:52.547Z,4.90
2022-09-21T00:32:21.280Z,4.90
2022-09-21T00:34:49.690Z,4.80
2022-09-21T00:37:18.061Z,4.80
2022-09-21T00:39:46.438Z,4.80
2022-09-21T00:42:18.210Z,4.70
2022-09-21T00:44:46.606Z,4.70
2022-09-21T00:47:20.569Z,4.60
2022-09-21T00:49:51.174Z,4.60
2022-09-21T00:52:21.331Z,4.60
2022-09-21T00:54:54.198Z,4.50
2022-09-21T00:57:25.476Z,4.60
2022-09-21T00:59:57.435Z,4.60
2022-09-21T01:02:28.486Z,4.50
2022-09-21T01:04:58.017Z,4.50
2022-09-21T01:07:29.228Z,4.50
2022-09-21T01:10:00.857Z,4.60
2022-09-21T01:12:45.140Z,4.50
2022-09-21T01:15:24.597Z,4.50
2022-09-21T01:18:01.813Z,4.40
2022-09-21T01:21:03.889Z,4.40
2022-09-21T01:23:54.148Z,4.30
2022-09-21T01:26:29.807Z,4.30
2022-09-21T01:29:18.127Z,4.30
2022-09-21T01:31:54.179Z,4.20
2022-09-21T01:34:29.293Z,4.20
2022-09-21T01:37:00.281Z,4.20
2022-09-21T01:39:31.720Z,4.10
2022-09-21T01:42:02.723Z,4.10
2022-09-21T01:44:34.633Z,4.10
2022-09-21T01:47:05.129Z,4.10
2022-09-21T01:49:39.480Z,4.10
2022-09-21T01:52:18.208Z,4.10
2022-09-21T01:54:51.885Z,4.10
2022-09-21T01:57:28.429Z,4.00
2022-09-21T02:00:00.304Z,4.00
2022-09-21T02:02:35.902Z,3.90
2022-09-21T02:05:06.159Z,3.90
2022-09-21T02:07:35.866Z,3.90
2022-09-21T02:10:05.948Z,3.90
2022-09-21T02:12:34.339Z,3.90
2022-09-21T02:15:04.832Z,3.90
2022-09-21T02:17:39.443Z,3.80
2022-09-21T02:20:19.664Z,3.80
2022-09-21T02:23:01.300Z,3.80
2022-09-21T02:25:38.710Z,3.70
2022-09-21T02:28:12.211Z,3.70
2022-09-21T02:30:48.332Z,3.70
2022-09-21T02:33:26.136Z,3.60
2022-09-21T02:36:02.119Z,3.60
2022-09-21T02:38:36.788Z,3.60
2022-09-21T02:41:15.399Z,3.60
2022-09-21T02:43:49.049Z,3.60
2022-09-21T02:46:24.309Z,3.50
2022-09-21T02:48:55.999Z,3.50
2022-09-21T02:51:31.082Z,3.50
2022-09-21T02:54:02.629Z,3.50
2022-09-21T02:56:33.077Z,3.50
2022-09-21T02:59:04.550Z,3.60
2022-09-21T03:01:35.484Z,3.60
2022-09-21T03:04:04.339Z,3.60
2022-09-21T03:06:33.673Z,3.50
2022-09-21T03:09:02.043Z,3.50
2022-09-21T03:11:30.428Z,3.50
2022-09-21T03:13:59.497Z,3.40
2022-09-21T03:16:28.642Z,3.40
2022-09-21T03:18:58.377Z,3.40
2022-09-21T03:21:26.669Z,3.30
2022-09-21T03:23:55.337Z,3.30
2022-09-21T03:26:23.848Z,3.40
2022-09-21T03:28:52.392Z,3.40
2022-09-21T03:31:20.812Z,3.40
2022-09-21T03:33:49.190Z,3.40
2022-09-21T03:36:18.931Z,3.30
2022-09-21T03:38:47.319Z,3.30
2022-09-21T03:41:15.566Z,3.30
2022-09-21T03:43:43.969Z,3.30
2022-09-21T03:46:12.344Z,3.30
2022-09-21T03:48:42.603Z,3.20
2022-09-21T03:51:11.218Z,3.20
2022-09-21T03:53:41.015Z,3.20
2022-09-21T03:56:12.187Z,3.20
2022-09-21T03:58:41.868Z,3.10
2022-09-21T04:01:10.287Z,3.10
2022-09-21T04:03:38.788Z,3.10
2022-09-21T04:06:10.428Z,3.00
2022-09-21T04:08:40.386Z,3.00
2022-09-21T04:11:12.708Z,3.00
2022-09-21T04:13:42.731Z,2.90
2022-09-21T04:16:11.848Z,2.90
2022-09-21T04:18:40.342Z,2.90
2022-09-21T04:21:08.722Z,2.90
2022-09-21T04:23:37.138Z,2.90
2022-09-21T04:26:07.100Z,2.90
2022-09-21T04:28:35.500Z,2.90
2022-09-21T04:31:03.980Z,2.90
2022-09-21T04:33:32.427Z,2.80
2022-09-21T04:36:00.690Z,2.80
2022-09-21T04:38:29.086Z,2.80
2022-09-21T04:40:58.949Z,2.80
2022-09-21T04:43:28.749Z,2.80
2022-09-21T04:45:57.147Z,2.80
2022-09-21T04:48:25.760Z,2.80
2022-09-21T04:50:54.150Z,2.80
2022-09-21T04:53:22.479Z,2.80
2022-09-21T04:55:51.259Z,2.80
2022-09-21T04:58:24.276Z,2.80
2022-09-21T05:00:55.349Z,2.80
2022-09-21T05:03:24.729Z,2.80
2022-09-21T05:05:55.490Z,2.70
2022-09-21T05:08:39.071Z,2.70
2022-09-21T05:11:07.647Z,2.70
2022-09-21T05:13:37.187Z,2.70
2022-09-21T05:16:07.744Z,2.70
2022-09-21T05:18:36.439Z,2.60
2022-09-21T05:21:06.229Z,2.60
2022-09-21T05:23:35.233Z,2.60
2022-09-21T05:26:03.643Z,2.60
2022-09-21T05:28:35.538Z,2.70
2022-09-21T05:31:28.851Z,2.70
2022-09-21T05:34:04.979Z,2.70
2022-09-21T05:36:48.187Z,2.80
2022-09-21T05:39:17.127Z,2.80
2022-09-21T05:41:46.408Z,2.80
2022-09-21T05:44:16.155Z,2.90
2022-09-21T05:46:55.466Z,2.90
2022-09-21T05:49:34.651Z,3.00
2022-09-21T05:52:12.659Z,3.00
2022-09-21T05:55:04.247Z,3.10
2022-09-21T05:57:59.949Z,3.20
2022-09-21T06:00:43.975Z,3.30
2022-09-21T06:03:36.489Z,3.60
2022-09-21T06:06:15.028Z,4.20
2022-09-21T06:08:50.605Z,4.80
2022-09-21T06:11:26.308Z,5.20
2022-09-21T06:14:07.168Z,5.50
2022-09-21T06:16:45.696Z,5.90
2022-09-21T06:19:29.272Z,6.20
2022-09-21T06:22:10.814Z,6.60
2022-09-21T06:27:47.135Z,7.40
2022-09-21T06:30:43.918Z,7.90
2022-09-21T06:33:21.275Z,8.30
2022-09-21T06:35:59.353Z,8.80
2022-09-21T06:38:43.241Z,9.30
2022-09-21T06:41:21.003Z,9.60
2022-09-21T06:44:06.383Z,9.80
2022-09-21T06:46:49.718Z,10.20
2022-09-21T06:49:45.798Z,10.60
2022-09-21T06:52:30.604Z,10.90
2022-09-21T06:55:02.857Z,11.30
2022-09-21T06:57:34.390Z,11.60
2022-09-21T07:00:14.953Z,11.90
2022-09-21T07:02:53.045Z,12.20
2022-09-21T07:05:25.224Z,12.40
2022-09-21T07:08:01.177Z,12.90
2022-09-21T07:10:52.714Z,13.40
2022-09-21T07:13:36.462Z,13.70
2022-09-21T07:16:12.479Z,14.20
2022-09-21T07:18:49.292Z,14.50
2022-09-21T07:21:31.698Z,14.70
2022-09-21T07:24:13.391Z,14.90
2022-09-21T07:26:44.883Z,14.60
2022-09-21T07:29:26.528Z,14.50
2022-09-21T07:32:07.944Z,14.50
2022-09-21T07:34:44.525Z,14.60
2022-09-21T07:37:32.086Z,14.50
2022-09-21T07:40:23.007Z,14.60
2022-09-21T07:42:56.112Z,14.70
2022-09-21T07:45:25.727Z,14.70
2022-09-21T07:47:57.190Z,14.90
2022-09-21T07:50:36.222Z,14.90
2022-09-21T07:53:09.401Z,15.00
2022-09-21T07:55:51.698Z,14.90
2022-09-21T07:58:40.254Z,15.00
2022-09-21T08:01:28.067Z,15.20
2022-09-21T08:04:01.977Z,15.40
2022-09-21T08:06:48.509Z,15.30
2022-09-21T08:09:23.112Z,15.00
2022-09-21T08:12:02.503Z,15.20
2022-09-21T08:14:32.989Z,15.70
2022-09-21T08:17:05.675Z,16.00
2022-09-21T08:19:36.822Z,16.20
2022-09-21T08:22:09.559Z,16.50
2022-09-21T08:24:48.692Z,16.60
2022-09-21T08:27:21.004Z,16.90
2022-09-21T08:29:49.364Z,17.10
2022-09-21T08:32:39.316Z,17.00
2022-09-21T08:35:06.033Z,17.20
2022-09-21T08:37:37.954Z,17.60
2022-09-21T08:40:08.278Z,17.90
2022-09-21T08:42:46.403Z,18.10
2022-09-21T08:45:22.516Z,18.40
2022-09-21T08:47:54.528Z,18.70
2022-09-21T08:50:33.820Z,18.50
2022-09-21T08:53:06.482Z,18.30
2022-09-21T08:55:34.797Z,18.60
2022-09-21T08:58:04.527Z,18.20
2022-09-21T09:00:39.444Z,18.10
2022-09-21T09:03:22.137Z,18.00
2022-09-21T09:05:56.511Z,18.40
2022-09-21T09:09:08.735Z,18.80
2022-09-21T09:11:53.829Z,19.30
2022-09-21T09:15:01.256Z,19.70
2022-09-21T09:17:40.395Z,19.90
2022-09-21T09:20:14.649Z,20.40
2022-09-21T09:22:47.469Z,20.60
2022-09-21T09:25:21.153Z,20.80
2022-09-21T09:27:54.465Z,21.10
2022-09-21T09:30:26.806Z,21.30
2022-09-21T09:33:01.132Z,21.30
2022-09-21T09:35:33.190Z,21.50
2022-09-21T09:38:06.046Z,21.50
2022-09-21T09:40:57.885Z,21.60
2022-09-21T09:43:43.300Z,20.90
2022-09-21T09:46:19.095Z,21.20
2022-09-21T09:49:04.445Z,21.50
2022-09-21T09:51:39.971Z,21.80
2022-09-21T09:54:14.968Z,22.00
2022-09-21T09:56:43.745Z,22.00
2022-09-21T09:59:18.448Z,22.20
2022-09-21T10:01:59.230Z,22.10
2022-09-21T10:04:28.109Z,22.20
2022-09-21T10:06:56.167Z,21.90
2022-09-21T10:09:29.453Z,22.10
2022-09-21T10:12:01.160Z,21.90
2022-09-21T10:14:33.918Z,22.30
2022-09-21T10:17:07.512Z,22.50
2022-09-21T10:19:37.931Z,22.10
2022-09-21T10:22:07.077Z,22.20
2022-09-21T10:24:38.933Z,22.50
2022-09-21T10:27:12.799Z,21.90
2022-09-21T10:29:43.368Z,21.60
2022-09-21T10:32:25.110Z,22.00
2022-09-21T10:35:20.178Z,22.20
2022-09-21T10:37:53.778Z,22.70
2022-09-21T10:40:30.828Z,23.00
2022-09-21T10:43:01.375Z,23.00
2022-09-21T10:45:30.831Z,22.70
2022-09-21T10:48:09.771Z,22.20
2022-09-21T10:50:40.132Z,21.50
2022-09-21T10:53:20.308Z,20.90
2022-09-21T10:56:12.034Z,20.50
2022-09-21T10:59:13.686Z,20.80
2022-09-21T11:01:46.874Z,20.80
2022-09-21T11:04:23.917Z,21.10
2022-09-21T11:06:55.909Z,21.50
2022-09-21T11:09:27.919Z,21.90
2022-09-21T11:12:04.131Z,22.40
2022-09-21T11:14:43.994Z,22.40
2022-09-21T11:17:23.720Z,22.60
2022-09-21T11:20:00.227Z,22.50
2022-09-21T11:22:36.727Z,22.20
2022-09-21T11:25:19.996Z,21.50
2022-09-21T11:27:54.828Z,20.70
2022-09-21T11:30:23.608Z,20.10
2022-09-21T11:33:07.838Z,19.50
2022-09-21T11:35:47.800Z,18.70
2022-09-21T11:38:28.942Z,18.30
2022-09-21T11:41:18.811Z,18.00
2022-09-21T11:44:09.420Z,17.80
2022-09-21T11:46:47.353Z,17.80
2022-09-21T11:49:36.161Z,17.70
2022-09-21T11:52:20.380Z,17.80
2022-09-21T11:55:14.588Z,17.90
2022-09-21T11:57:54.288Z,18.10
2022-09-21T12:00:25.114Z,18.20
2022-09-21T12:03:35.338Z,18.40
2022-09-21T12:06:15.116Z,18.50
2022-09-21T12:09:03.068Z,18.70
2022-09-21T12:11:40.374Z,18.80
2022-09-21T12:14:18.774Z,18.60
2022-09-21T12:16:57.142Z,18.50
2022-09-21T12:19:33.898Z,18.50
2022-09-21T12:22:06.654Z,18.40
2022-09-21T12:24:40.885Z,18.40
2022-09-21T12:27:15.225Z,18.60
2022-09-21T12:29:47.792Z,18.80
2022-09-21T12:32:23.436Z,18.80
2022-09-21T12:34:58.462Z,18.70
2022-09-21T12:37:32.514Z,18.70
2022-09-21T12:40:07.883Z,18.70
2022-09-21T12:42:41.949Z,18.70
2022-09-21T12:45:20.751Z,18.70
2022-09-21T12:47:58.127Z,18.70
2022-09-21T12:50:32.302Z,18.80
2022-09-21T12:53:01.085Z,18.70
2022-09-21T12:55:44.459Z,18.70
2022-09-21T12:58:24.568Z,18.70
2022-09-21T13:01:02.596Z,18.70
2022-09-21T13:03:37.729Z,18.70
2022-09-21T13:06:30.551Z,18.70
2022-09-21T13:09:04.213Z,18.80
2022-09-21T13:11:36.673Z,18.70
2022-09-21T13:14:06.079Z,18.60
2022-09-21T13:16:37.590Z,18.20
2022-09-21T13:19:25.331Z,18.10
2022-09-21T13:22:13.757Z,18.00
2022-09-21T13:24:45.557Z,18.50
2022-09-21T13:27:18.192Z,19.30
2022-09-21T13:29:47.135Z,20.30
2022-09-21T13:32:24.893Z,21.20
2022-09-21T13:34:53.113Z,21.50
2022-09-21T13:37:31.558Z,21.80
2022-09-21T13:40:39.104Z,22.40
2022-09-21T13:43:58.677Z,23.00
2022-09-21T13:46:51.941Z,23.70
2022-09-21T13:49:31.750Z,23.70
2022-09-21T13:52:03.320Z,23.10
2022-09-21T13:54:34.317Z,22.30
2022-09-21T13:57:17.401Z,21.80
2022-09-21T13:59:47.013Z,22.20
2022-09-21T14:02:32.448Z,22.30
2022-09-21T14:05:06.107Z,21.70
2022-09-21T14:10:10.567Z,20.70
2022-09-21T14:12:45.759Z,20.50
2022-09-21T14:15:37.833Z,20.30
2022-09-21T14:18:39.141Z,20.20
2022-09-21T14:21:19.132Z,19.90
2022-09-21T14:24:30.030Z,19.60
2022-09-21T14:27:13.429Z,19.50
2022-09-21T14:29:46.887Z,19.30
2022-09-21T14:32:25.051Z,19.20
2022-09-21T14:35:01.989Z,19.10
2022-09-21T14:37:39.068Z,19.10
2022-09-21T14:40:19.830Z,19.00
2022-09-21T14:42:50.525Z,19.00
2022-09-21T14:45:21.159Z,19.00
2022-09-21T14:48:09.970Z,19.10
2022-09-21T14:50:46.115Z,19.40
2022-09-21T14:53:47.952Z,20.10
2022-09-21T14:56:36.689Z,21.30
2022-09-21T14:59:25.132Z,22.80
2022-09-21T15:02:00.310Z,24.00
2022-09-21T15:04:42.689Z,25.00
2022-09-21T15:07:50.267Z,25.50
2022-09-21T15:10:49.744Z,25.00
2022-09-21T15:13:46.537Z,24.80
2022-09-21T15:16:30.479Z,25.10
2022-09-21T15:19:12.496Z,25.50
2022-09-21T15:21:45.047Z,25.90
2022-09-21T15:24:29.107Z,26.30
2022-09-21T15:27:10.661Z,26.50
2022-09-21T15:29:39.767Z,26.50
2022-09-21T15:32:08.499Z,26.60
2022-09-21T15:34:36.857Z,26.30
2022-09-21T15:37:13.283Z,26.00
2022-09-21T15:39:42.888Z,26.10
2022-09-21T15:42:22.932Z,26.10
2022-09-21T15:44:55.463Z,25.80
2022-09-21T15:47:28.596Z,25.40
2022-09-21T15:49:57.258Z,25.40
2022-09-21T15:52:33.100Z,25.50
2022-09-21T15:55:13.306Z,25.60
2022-09-21T15:57:44.293Z,25.60
2022-09-21T16:00:25.236Z,25.60
2022-09-21T16:03:04.713Z,25.50
2022-09-21T16:05:44.591Z,25.30
2022-09-21T16:08:28.844Z,25.20
2022-09-21T16:14:28.158Z,25.10
2022-09-21T16:17:25.055Z,24.70
2022-09-21T16:20:23.218Z,24.40
2022-09-21T16:22:54.920Z,24.00
2022-09-21T16:25:32.813Z,23.80
2022-09-21T16:28:03.167Z,23.60
2022-09-21T16:30:48.856Z,23.60
2022-09-21T16:34:06.669Z,23.40
2022-09-21T16:36:45.847Z,22.90
2022-09-21T16:39:17.446Z,22.60
2022-09-21T16:41:48.937Z,22.40
2022-09-21T16:44:23.035Z,22.20
2022-09-21T16:46:59.394Z,21.90
2022-09-21T16:49:33.773Z,21.70
2022-09-21T16:52:02.650Z,21.20
2022-09-21T16:54:31.859Z,20.80
2022-09-21T16:57:06.558Z,20.40
2022-09-21T16:59:36.677Z,20.00
2022-09-21T17:02:06.713Z,19.60
2022-09-21T17:04:37.708Z,19.10
2022-09-21T17:07:07.583Z,18.70
2022-09-21T17:09:39.440Z,18.30
2022-09-21T17:12:09.789Z,17.90
2022-09-21T17:14:45.640Z,17.60
2022-09-21T17:17:22.629Z,17.30
2022-09-21T17:19:53.884Z,17.00
2022-09-21T17:22:25.703Z,16.70
2022-09-21T17:24:55.512Z,16.40
2022-09-21T17:27:26.817Z,16.10
2022-09-21T17:29:56.704Z,15.90
2022-09-21T17:32:28.013Z,15.60
2022-09-21T17:35:02.069Z,15.40
2022-09-21T17:37:40.154Z,15.10
2022-09-21T17:40:11.660Z,15.00
2022-09-21T17:42:46.580Z,14.80
2022-09-21T17:45:28.621Z,14.60
2022-09-21T17:47:59.898Z,14.30
2022-09-21T17:50:32.696Z,14.10
2022-09-21T17:53:21.976Z,13.90
2022-09-21T17:55:55.514Z,13.80
2022-09-21T17:58:43.108Z,13.70
2022-09-21T18:01:21.265Z,13.50
2022-09-21T18:03:51.875Z,13.40
2022-09-21T18:06:20.779Z,13.30
2022-09-21T18:08:50.608Z,13.20
2022-09-21T18:11:44.938Z,13.10
2022-09-21T18:14:21.599Z,12.90
2022-09-21T18:16:56.422Z,12.90
2022-09-21T18:19:38.284Z,12.70
2022-09-21T18:22:19.321Z,12.60
2022-09-21T18:24:48.575Z,12.50
2022-09-21T18:27:19.593Z,12.40
2022-09-21T18:29:48.739Z,12.30
2022-09-21T18:32:46.479Z,12.10
2022-09-21T18:35:31.520Z,12.00
2022-09-21T18:38:13.270Z,11.90
2022-09-21T18:40:51.721Z,11.70
2022-09-21T18:43:29.838Z,11.60
2022-09-21T18:46:03.255Z,11.50
2022-09-21T18:48:51.778Z,11.40
2022-09-21T18:51:28.448Z,11.30
2022-09-21T18:53:58.352Z,11.20
2022-09-21T18:56:29.827Z,11.10
2022-09-21T18:58:59.210Z,11.10
2022-09-21T19:01:33.061Z,11.00
2022-09-21T19:04:02.689Z,10.90
2022-09-21T19:06:45.436Z,10.80
2022-09-21T19:09:31.251Z,10.70
2022-09-21T19:12:07.400Z,10.60
2022-09-21T19:14:45.841Z,10.60
2022-09-21T19:17:27.873Z,10.50
2022-09-21T19:20:12.603Z,10.30
2022-09-21T19:22:49.988Z,10.20
2022-09-21T19:25:28.282Z,10.10
2022-09-21T19:28:01.696Z,10.10
2022-09-21T19:30:30.752Z,10.00
2022-09-21T19:33:00.641Z,9.90
2022-09-21T19:35:31.012Z,9.80
2022-09-21T19:38:02.754Z,9.70
2022-09-21T19:40:33.419Z,9.70
2022-09-21T19:43:27.418Z,9.60
2022-09-21T19:46:12.733Z,9.50
2022-09-21T19:48:44.960Z,9.40
2022-09-21T19:51:20.500Z,9.40
2022-09-21T19:54:15.051Z,9.30
2022-09-21T19:57:05.471Z,9.20
2022-09-21T19:59:47.380Z,9.10
2022-09-21T20:02:19.729Z,9.10
2022-09-21T20:04:56.377Z,9.00
2022-09-21T20:07:37.655Z,9.00
2022-09-21T20:10:30.220Z,8.90
2022-09-21T20:13:06.781Z,8.90
2022-09-21T20:15:42.340Z,8.80
2022-09-21T20:18:18.149Z,8.70
2022-09-21T20:20:47.029Z,8.70
2022-09-21T20:23:15.769Z,8.60
2022-09-21T20:25:56.893Z,8.60
2022-09-21T20:28:26.460Z,8.50
2022-09-21T20:30:54.991Z,8.40
2022-09-21T20:33:24.823Z,8.40
2022-09-21T20:35:55.994Z,8.30
2022-09-21T20:38:24.540Z,8.30
2022-09-21T20:40:54.271Z,8.20
2022-09-21T20:43:30.274Z,8.20
2022-09-21T20:46:00.867Z,8.20
2022-09-21T20:48:29.323Z,8.10
2022-09-21T20:50:59.166Z,8.10
2022-09-21T20:53:27.560Z,8.00
2022-09-21T20:55:58.840Z,8.00
2022-09-21T20:58:27.541Z,7.90
2022-09-21T21:00:59.006Z,7.90
2022-09-21T21:03:27.799Z,7.90
2022-09-21T21:06:07.428Z,7.80
2022-09-21T21:08:35.820Z,7.70
2022-09-21T21:11:05.888Z,7.70
2022-09-21T21:13:34.688Z,7.70
2022-09-21T21:16:07.066Z,7.60
2022-09-21T21:18:41.228Z,7.50
2022-09-21T21:21:09.997Z,7.50
2022-09-21T21:23:52.308Z,7.50
2022-09-21T21:26:33.308Z,7.50
2022-09-21T21:29:10.880Z,7.40
2022-09-21T21:31:39.909Z,7.30
2022-09-21T21:34:08.829Z,7.30
2022-09-21T21:36:37.317Z,7.30
2022-09-21T21:39:05.981Z,7.20
2022-09-21T21:41:35.849Z,7.10
2022-09-21T21:44:04.167Z,7.10
2022-09-21T21:46:33.002Z,7.10
2022-09-21T21:49:01.635Z,7.00
2022-09-21T21:51:30.530Z,7.00
2022-09-21T21:53:58.946Z,6.90
2022-09-21T21:56:27.461Z,6.90
2022-09-21T21:58:58.006Z,6.90
2022-09-21T22:01:29.427Z,6.80
2022-09-21T22:04:01.173Z,6.80
2022-09-21T22:06:31.369Z,6.80
2022-09-21T22:09:00.469Z,6.70
2022-09-21T22:11:31.081Z,6.70
2022-09-21T22:14:02.410Z,6.70
2022-09-21T22:16:32.713Z,6.60
2022-09-21T22:19:04.291Z,6.60
2022-09-21T22:21:35.170Z,6.60
2022-09-21T22:24:05.605Z,6.50
2022-09-21T22:26:38.050Z,6.50
2022-09-21T22:29:09.579Z,6.40
2022-09-21T22:31:41.257Z,6.30
2022-09-21T22:34:10.405Z,6.30
2022-09-21T22:36:39.774Z,6.30
2022-09-21T22:39:09.289Z,6.30
2022-09-21T22:41:40.111Z,6.20
2022-09-21T22:44:11.327Z,6.20
2022-09-21T22:46:40.322Z,6.10
2022-09-21T22:49:08.841Z,6.10
2022-09-21T22:51:38.098Z,6.10
2022-09-21T22:54:07.153Z,6.10
2022-09-21T22:56:35.791Z,6.00
2022-09-21T22:59:07.460Z,6.00
2022-09-21T23:01:39.015Z,5.90
2022-09-21T23:04:09.840Z,5.90
2022-09-21T23:06:40.444Z,5.90
2022-09-21T23:09:10.514Z,5.80
2022-09-21T23:11:42.029Z,5.80
2022-09-21T23:14:11.805Z,5.80
2022-09-21T23:16:42.091Z,5.70
2022-09-21T23:19:15.987Z,5.70
2022-09-21T23:21:46.098Z,5.70
2022-09-21T23:24:14.739Z,5.60
2022-09-21T23:26:43.642Z,5.60
2022-09-21T23:29:13.702Z,5.60
2022-09-21T23:31:46.028Z,5.60
2022-09-21T23:34:15.640Z,5.50
2022-09-21T23:36:45.350Z,5.50
2022-09-21T23:39:15.986Z,5.50
2022-09-21T23:41:44.996Z,5.40
2022-09-21T23:44:13.421Z,5.40
2022-09-21T23:46:43.943Z,5.40
2022-09-21T23:49:13.012Z,5.30
2022-09-21T23:51:41.931Z,5.30
2022-09-21T23:54:10.788Z,5.20
2022-09-21T23:56:39.208Z,5.20
2022-09-21T23:59:07.809Z,5.10
